Time;durP1;ratioP1;P1;durP2;ratioP2;P2;SDS_P1;SDS_P2;PMS_P1;PMS_P2;Temp;Humidity;BMP_temperature;BMP_pressure;BME280_temperature;BME280_humidity;BME280_pressure;Samples;Min_cycle;Max_cycle;Signal;HPM_P1;HPM_P2
2022/12/15 00:41:37;;;;;;;29.15;12.68;;;;;;;-2.37;67.06;99329.91;10351062;28;20165;-67
2022/12/15 00:46:53;;;;;;;26.15;12.15;;;;;;;-2.30;67.09;99349.53;10324958;28;20141;-66
2022/12/15 01:23:54;;;;;;;28.15;12.40;;;;;;;-2.13;67.20;99386.84;10348611;28;20432;-66
2022/12/15 01:28:56;;;;;;;30.27;12.38;;;;;;;-2.11;67.17;99390.22;10345106;28;20457;-65
2022/12/15 01:33:57;;;;;;;24.25;11.60;;;;;;;-2.15;67.25;99383.50;10343453;28;20144;-66
2022/12/15 01:38:59;;;;;;;27.30;11.55;;;;;;;-2.14;67.07;99393.94;10347959;28;20505;-66
2022/12/15 01:44:19;;;;;;;23.45;10.68;;;;;;;-2.13;67.00;99408.78;10328706;28;20053;-66
2022/12/15 01:49:24;;;;;;;24.75;11.00;;;;;;;-2.14;66.94;99403.63;10343090;28;20085;-66
2022/12/15 01:54:37;;;;;;;22.92;11.25;;;;;;;-2.17;67.35;99406.47;10344159;28;20073;-66
2022/12/15 01:59:47;;;;;;;26.90;11.05;;;;;;;-2.22;66.95;99412.13;10341385;28;20544;-67
2022/12/15 02:04:51;;;;;;;21.58;11.25;;;;;;;-2.26;67.00;99410.66;10342905;28;20074;-64
2022/12/15 02:09:57;;;;;;;24.02;11.32;;;;;;;-2.30;66.70;99425.03;10339688;28;20077;-66
2022/12/15 02:15:21;;;;;;;26.55;10.07;;;;;;;-2.33;66.83;99435.78;10344213;28;20124;-65
2022/12/15 02:20:41;;;;;;;24.42;11.13;;;;;;;-2.46;67.08;99428.81;10339765;28;20038;-64
2022/12/15 02:25:58;;;;;;;24.98;12.05;;;;;;;-2.51;67.07;99445.91;10340517;28;20400;-65
2022/12/15 02:36:35;;;;;;;;;;;;;;;-2.48;67.07;99449.13;10339245;28;20053;-66
2022/12/15 02:41:38;;;;;;;23.33;10.95;;;;;;;-2.49;67.08;99449.25;10337912;28;19979;-65
2022/12/15 02:46:55;;;;;;;30.60;11.63;;;;;;;-2.50;66.87;99442.31;10323828;28;20105;-65
2022/12/15 02:52:19;;;;;;;25.27;10.80;;;;;;;-2.54;67.28;99454.03;10340855;28;20104;-66
2022/12/15 02:57:34;;;;;;;23.38;11.55;;;;;;;-2.57;66.94;99465.59;10340919;28;20089;-65
2022/12/15 03:02:40;;;;;;;25.35;10.70;;;;;;;-2.60;67.43;99476.38;10336946;28;20481;-65
2022/12/15 03:07:42;;;;;;;26.20;10.65;;;;;;;-2.71;67.23;99468.44;10322186;28;20461;-66
2022/12/15 03:12:44;;;;;;;28.35;11.50;;;;;;;-2.74;67.49;99489.72;10341459;28;20129;-64
2022/12/15 03:17:45;;;;;;;23.70;10.07;;;;;;;-2.82;67.71;99474.50;10342945;28;20133;-66
2022/12/15 03:22:46;;;;;;;22.17;11.07;;;;;;;-2.88;67.41;99475.78;10339991;28;20140;-64
2022/12/15 03:27:48;;;;;;;21.85;10.63;;;;;;;-2.91;67.07;99489.13;10342309;28;20077;-65
2022/12/15 03:32:49;;;;;;;23.02;10.70;;;;;;;-2.96;67.29;99478.13;10341185;28;20042;-64
2022/12/15 03:37:52;;;;;;;30.52;11.85;;;;;;;-2.96;67.30;99493.03;10343123;28;20046;-65
2022/12/15 03:42:53;;;;;;;27.98;10.73;;;;;;;-2.99;67.17;99502.00;10340085;28;20129;-65
2022/12/15 03:47:55;;;;;;;22.55;11.25;;;;;;;-3.06;66.98;99512.13;10345864;28;20475;-64
2022/12/15 03:53:01;;;;;;;28.73;12.45;;;;;;;-3.11;66.98;99506.34;10342788;28;20106;-64
2022/12/15 03:58:02;;;;;;;26.20;11.35;;;;;;;-3.13;66.99;99510.88;10338621;28;20061;-65
2022/12/15 04:03:04;;;;;;;22.95;9.55;;;;;;;-3.20;67.06;99507.00;10339716;28;20069;-64
2022/12/15 04:08:05;;;;;;;20.55;10.48;;;;;;;-3.29;67.27;99513.75;10340428;28;20676;-64
2022/12/15 04:13:09;;;;;;;23.08;10.70;;;;;;;-3.37;67.19;99528.38;10341719;28;20073;-64
2022/12/15 04:18:11;;;;;;;24.27;11.68;;;;;;;-3.33;67.28;99519.34;10341860;28;20081;-64
2022/12/15 04:23:13;;;;;;;27.52;12.23;;;;;;;-3.30;67.43;99527.00;10340716;28;20161;-65
2022/12/15 05:32:18;;;;;;;30.20;11.30;;;;;;;-2.68;67.68;99555.84;10344853;28;20078;-65
2022/12/15 05:37:20;;;;;;;25.33;11.63;;;;;;;-2.50;67.91;99572.06;10344795;28;20105;-64
2022/12/15 05:42:21;;;;;;;26.17;12.00;;;;;;;-2.38;68.08;99561.63;10349580;28;20080;-65
2022/12/15 05:47:22;;;;;;;24.40;11.02;;;;;;;-2.27;67.89;99566.91;10349938;28;20133;-65
2022/12/15 05:52:24;;;;;;;29.25;12.15;;;;;;;-2.17;67.92;99570.56;10352318;28;20070;-65
2022/12/15 05:57:25;;;;;;;28.45;12.80;;;;;;;-2.09;67.81;99576.09;10348110;28;20551;-65
2022/12/15 06:02:29;;;;;;;33.05;12.98;;;;;;;-1.97;68.09;99571.69;10347740;28;20137;-65
2022/12/15 06:07:32;;;;;;;27.70;12.70;;;;;;;-1.91;68.04;99581.75;10346487;28;20045;-65
2022/12/15 06:12:34;;;;;;;28.95;12.45;;;;;;;-1.77;67.90;99575.44;10347631;28;20120;-65
2022/12/15 06:17:35;;;;;;;28.13;10.43;;;;;;;-1.73;68.17;99569.00;10345694;28;20508;-65
2022/12/15 06:22:36;;;;;;;24.05;11.55;;;;;;;-1.80;68.82;99583.56;10342599;28;20042;-65
2022/12/15 06:27:38;;;;;;;22.40;10.82;;;;;;;-1.72;68.57;99606.69;10346479;28;20077;-65
2022/12/15 06:32:39;;;;;;;29.98;13.55;;;;;;;-1.49;68.38;99615.50;10342692;28;20183;-64
2022/12/15 06:37:41;;;;;;;24.08;11.77;;;;;;;-1.28;67.64;99613.03;10344206;28;20124;-64
2022/12/15 06:42:42;;;;;;;29.60;13.98;;;;;;;-1.12;67.53;99610.88;10344258;28;20240;-65
2022/12/15 06:47:43;;;;;;;31.70;14.00;;;;;;;-1.00;67.97;99609.91;10341411;28;20061;-64
2022/12/15 06:52:45;;;;;;;23.63;9.65;;;;;;;-1.03;68.07;99607.53;10348728;28;20705;-65
2022/12/15 06:57:47;;;;;;;30.05;11.50;;;;;;;-0.99;68.40;99618.66;10348411;28;20130;-67
2022/12/15 07:02:49;;;;;;;32.40;13.43;;;;;;;-0.97;68.67;99616.72;10346780;28;20105;-65
2022/12/15 07:07:51;;;;;;;32.58;11.88;;;;;;;-0.92;68.31;99611.94;10334890;28;20064;-66
2022/12/15 07:12:55;;;;;;;34.35;14.05;;;;;;;-0.70;68.56;99628.72;10362987;28;20046;-66
2022/12/15 07:17:56;;;;;;;31.73;13.07;;;;;;;-0.54;68.28;99633.63;10352282;28;20049;-64
2022/12/15 07:22:59;;;;;;;34.47;13.95;;;;;;;-0.39;68.21;99642.94;10358984;28;20052;-64
2022/12/15 07:28:01;;;;;;;27.35;13.32;;;;;;;-0.32;67.84;99641.47;10350339;28;20104;-65
2022/12/15 07:33:03;;;;;;;28.67;12.52;;;;;;;-0.21;68.03;99648.53;10335607;28;20057;-65
2022/12/15 07:38:06;;;;;;;34.10;15.52;;;;;;;-0.09;67.99;99649.34;10318655;28;20046;-66
2022/12/15 07:43:07;;;;;;;33.00;14.32;;;;;;;-0.06;67.74;99643.78;10346794;28;20072;-64
2022/12/15 07:48:08;;;;;;;32.83;13.65;;;;;;;0.01;68.14;99644.16;10342259;28;20421;-65
2022/12/15 07:53:10;;;;;;;25.70;11.48;;;;;;;-0.14;67.91;99638.31;10357136;28;20041;-64
2022/12/15 07:58:11;;;;;;;37.30;13.43;;;;;;;-0.05;67.85;99640.22;10364444;28;20068;-64
2022/12/15 08:03:13;;;;;;;30.27;12.63;;;;;;;0.05;68.15;99656.16;10354225;28;20042;-65
2022/12/15 08:08:14;;;;;;;33.80;14.45;;;;;;;0.05;68.32;99654.34;10351400;28;20061;-66
2022/12/15 08:13:16;;;;;;;34.70;13.75;;;;;;;0.14;67.54;99653.59;10341493;28;20092;-65
2022/12/15 08:18:38;;;;;;;33.25;13.88;;;;;;;0.21;68.24;99659.19;10348399;28;20469;-65
2022/12/15 08:23:40;;;;;;;30.30;13.68;;;;;;;0.27;68.26;99663.97;10347467;28;20046;-65
2022/12/15 08:28:42;;;;;;;31.67;14.35;;;;;;;0.27;67.91;99658.69;10347042;28;20464;-64
2022/12/15 08:33:45;;;;;;;28.95;14.77;;;;;;;0.33;68.25;99665.25;10346466;28;20066;-64
2022/12/15 08:38:46;;;;;;;32.65;15.52;;;;;;;0.36;67.96;99671.16;10350123;28;20100;-65
2022/12/15 08:43:49;;;;;;;40.00;17.08;;;;;;;0.40;68.29;99679.66;10360439;28;20041;-65
2022/12/15 08:48:54;;;;;;;36.95;15.48;;;;;;;0.50;68.22;99682.38;10346392;28;20070;-67
2022/12/15 08:53:59;;;;;;;38.45;14.82;;;;;;;0.51;68.33;99678.75;10350715;28;20543;-64
2022/12/15 08:59:01;;;;;;;38.97;16.33;;;;;;;0.59;67.79;99697.47;10350542;28;20050;-66
2022/12/15 09:04:03;;;;;;;34.95;15.05;;;;;;;0.45;68.19;99687.19;10336016;28;20096;-71
2022/12/15 09:09:06;;;;;;;35.78;14.05;;;;;;;0.33;68.74;99700.47;10354486;28;20035;-65
2022/12/15 09:14:08;;;;;;;32.95;13.75;;;;;;;0.23;68.59;99698.72;10347745;28;20042;-68
2022/12/15 09:19:09;;;;;;;32.88;14.80;;;;;;;0.15;68.58;99707.28;10340772;28;20137;-66
2022/12/15 09:24:12;;;;;;;34.92;13.18;;;;;;;0.13;68.53;99715.31;10348241;28;20047;-68
2022/12/15 09:29:26;;;;;;;38.33;15.07;;;;;;;0.12;68.39;99724.22;10350198;28;20070;-67
2022/12/15 09:34:27;;;;;;;39.67;15.80;;;;;;;0.29;68.27;99732.56;10344692;28;20709;-67
2022/12/15 09:39:29;;;;;;;39.63;15.02;;;;;;;0.45;67.91;99740.91;10325350;28;20379;-64
2022/12/15 09:44:31;;;;;;;40.13;15.93;;;;;;;0.53;67.67;99746.44;10348439;28;20034;-67
2022/12/15 09:49:53;;;;;;;41.10;15.27;;;;;;;0.57;67.86;99745.22;10350066;28;20184;-66
2022/12/15 09:54:57;;;;;;;37.90;15.45;;;;;;;0.67;67.78;99733.84;10348068;28;20053;-66
2022/12/15 10:00:08;;;;;;;42.03;16.05;;;;;;;0.72;68.19;99737.78;10330936;28;20038;-65
2022/12/15 10:05:19;;;;;;;35.17;15.43;;;;;;;0.79;68.11;99736.31;10326447;28;20053;-67
2022/12/15 10:10:29;;;;;;;36.47;15.48;;;;;;;0.86;68.37;99741.94;10347631;28;20042;-63
2022/12/15 10:15:44;;;;;;;38.15;14.60;;;;;;;0.82;68.81;99748.44;10346458;28;20050;-66
2022/12/15 10:20:54;;;;;;;36.38;14.85;;;;;;;0.77;68.96;99743.53;10343737;28;20050;-67
2022/12/15 10:26:15;;;;;;;39.63;16.13;;;;;;;0.84;68.90;99740.38;10344211;28;20046;-68
2022/12/15 10:31:29;;;;;;;29.17;13.63;;;;;;;0.89;69.15;99732.88;10346408;28;20100;-66
2022/12/15 10:36:30;;;;;;;34.17;13.30;;;;;;;0.93;68.98;99739.63;10344812;28;20038;-69
2022/12/15 10:41:32;;;;;;;35.05;14.00;;;;;;;0.87;69.25;99738.31;10344954;28;20077;-69
2022/12/15 10:46:33;;;;;;;35.35;13.90;;;;;;;0.98;68.17;99737.41;10343476;28;20068;-68
2022/12/15 10:51:53;;;;;;;34.63;14.95;;;;;;;1.14;68.61;99731.66;10348328;28;20413;-66
2022/12/15 10:56:56;;;;;;;39.78;15.27;;;;;;;1.25;67.86;99728.94;10343140;28;20050;-66
2022/12/15 11:02:19;;;;;;;37.38;15.48;;;;;;;1.31;68.33;99725.75;10345045;28;20493;-67
2022/12/15 11:07:46;;;;;;;35.22;14.25;;;;;;;1.33;68.83;99728.28;10344258;28;20121;-67
2022/12/15 11:13:16;;;;;;;38.65;16.02;;;;;;;1.28;68.83;99723.34;10342083;28;20386;-64
2022/12/15 11:18:50;;;;;;;36.95;15.45;;;;;;;1.29;68.16;99706.53;10336543;28;20209;-65
2022/12/15 11:24:15;;;;;;;37.28;16.83;;;;;;;1.10;68.51;99706.41;10316300;28;20046;-64
2022/12/15 11:29:38;;;;;;;36.72;15.20;;;;;;;1.01;68.55;99702.75;10343853;28;20080;-67
2022/12/15 11:34:44;;;;;;;39.55;16.42;;;;;;;0.73;69.06;99698.94;10347649;28;20582;-66
2022/12/15 11:40:18;;;;;;;28.77;12.00;;;;;;;1.03;68.39;99679.66;10344319;28;20050;-66
2022/12/15 11:45:30;;;;;;;37.88;15.82;;;;;;;1.12;68.58;99676.19;10331339;28;20501;-68
2022/12/15 11:50:58;;;;;;;31.88;15.82;;;;;;;1.14;69.27;99671.59;10343883;28;20040;-65
2022/12/15 11:56:27;;;;;;;45.00;16.95;;;;;;;1.16;68.43;99669.66;10325176;28;20045;-67
2022/12/15 12:02:07;;;;;;;32.50;13.30;;;;;;;1.05;69.10;99663.63;10321796;28;20069;-67
2022/12/15 12:07:37;;;;;;;30.60;13.57;;;;;;;0.88;68.85;99657.97;10309614;28;20041;-67
2022/12/15 12:13:12;;;;;;;36.53;16.30;;;;;;;1.10;68.58;99654.31;10337658;28;20132;-68
2022/12/15 12:18:45;;;;;;;33.80;13.98;;;;;;;1.18;68.09;99651.00;10312080;28;20548;-68
2022/12/15 12:23:57;;;;;;;34.70;15.05;;;;;;;1.15;68.83;99649.47;10289142;28;20142;-66
2022/12/15 12:29:11;;;;;;;36.15;15.10;;;;;;;1.13;68.39;99643.47;10307052;28;20066;-67
2022/12/15 12:34:22;;;;;;;33.92;14.75;;;;;;;1.05;69.15;99638.03;10302192;28;20054;-66
2022/12/15 12:39:24;;;;;;;37.35;16.67;;;;;;;1.02;68.80;99642.72;10302785;28;20046;-68
2022/12/15 12:44:36;;;;;;;43.20;17.38;;;;;;;1.17;68.84;99625.53;10302811;28;20394;-66
2022/12/15 12:49:55;;;;;;;33.92;15.32;;;;;;;1.16;69.10;99623.84;10301577;28;20071;-65
2022/12/15 12:55:02;;;;;;;40.55;17.67;;;;;;;1.08;68.65;99589.28;10297674;28;20142;-67
2022/12/15 13:00:19;;;;;;;47.20;18.55;;;;;;;1.06;68.66;99580.63;10300303;28;20042;-67
2022/12/15 13:05:28;;;;;;;35.60;15.43;;;;;;;0.91;68.69;99580.13;10317917;28;20049;-68
2022/12/15 13:10:37;;;;;;;39.92;16.30;;;;;;;0.81;68.69;99566.03;10299637;28;20110;-68
2022/12/15 13:15:43;;;;;;;40.63;16.48;;;;;;;0.78;68.25;99557.41;10308490;28;20042;-63
2022/12/15 13:20:56;;;;;;;33.85;15.43;;;;;;;0.67;68.42;99544.28;10347817;28;20073;-64
2022/12/15 13:25:57;;;;;;;41.75;17.55;;;;;;;0.54;68.45;99541.03;10350828;28;20060;-61
2022/12/15 13:31:23;;;;;;;35.08;15.77;;;;;;;0.43;68.53;99541.91;10350716;28;20065;-65
2022/12/15 13:36:37;;;;;;;43.15;16.58;;;;;;;0.39;67.87;99533.44;10345271;28;20129;-66
2022/12/15 13:41:45;;;;;;;37.22;15.73;;;;;;;0.37;67.99;99537.16;10347579;28;20721;-68
2022/12/15 13:47:22;;;;;;;34.20;14.77;;;;;;;0.46;68.09;99530.28;10333205;28;20134;-68
2022/12/15 13:52:31;;;;;;;36.40;15.27;;;;;;;0.43;67.90;99523.41;10348370;28;20127;-68
2022/12/15 13:58:01;;;;;;;37.42;16.45;;;;;;;0.36;68.05;99527.56;10323499;28;20045;-68
2022/12/15 14:03:05;;;;;;;40.60;16.00;;;;;;;0.32;68.24;99524.34;10351559;28;20041;-66
2022/12/15 14:08:14;;;;;;;32.97;14.55;;;;;;;0.30;67.69;99530.75;10347734;28;20049;-70
2022/12/15 14:13:35;;;;;;;36.72;15.45;;;;;;;0.28;67.90;99516.81;10353770;28;20107;-69
2022/12/15 14:18:37;;;;;;;38.85;16.38;;;;;;;0.24;68.03;99518.88;10344217;28;20046;-66
2022/12/15 14:23:42;;;;;;;41.83;17.75;;;;;;;0.26;68.03;99516.94;10342236;28;20045;-64
2022/12/15 14:29:05;;;;;;;39.65;16.45;;;;;;;0.23;67.43;99521.66;10342278;28;20042;-67
2022/12/15 14:34:28;;;;;;;40.38;15.85;;;;;;;0.17;67.57;99533.56;10340529;28;20076;-67
2022/12/15 14:39:42;;;;;;;35.50;14.98;;;;;;;0.00;68.29;99532.38;10344002;28;20355;-66
2022/12/15 14:44:45;;;;;;;39.70;15.57;;;;;;;-0.02;67.84;99547.47;10320601;28;20054;-67
2022/12/15 14:49:52;;;;;;;;;;;;;;;-0.08;68.40;99555.91;10344918;28;21413;-67
2022/12/15 14:55:32;;;;;;;41.75;15.95;;;;;;;-0.16;67.90;99561.00;10348285;28;20363;-68
2022/12/15 15:00:47;;;;;;;36.22;14.82;;;;;;;-0.23;67.65;99560.69;10328888;28;20093;-67
2022/12/15 15:05:53;;;;;;;35.97;15.35;;;;;;;-0.30;67.60;99586.72;10327586;28;20440;-67
2022/12/15 15:10:59;;;;;;;34.50;14.43;;;;;;;-0.30;68.28;99601.75;10349951;28;20072;-69
2022/12/15 15:16:06;;;;;;;36.72;15.52;;;;;;;-0.34;68.05;99592.41;10340438;28;20128;-68
2022/12/15 15:21:16;;;;;;;36.90;15.65;;;;;;;-0.38;68.43;99573.31;10343509;28;20125;-66
2022/12/15 15:26:17;;;;;;;32.05;15.13;;;;;;;-0.43;68.25;99576.34;10335725;28;20372;-67
2022/12/15 15:31:34;;;;;;;38.33;16.52;;;;;;;-0.50;67.67;99569.06;10340216;28;20054;-65
2022/12/15 15:36:42;;;;;;;40.83;15.65;;;;;;;-0.55;68.24;99564.16;10341494;28;20129;-68
2022/12/15 15:41:43;;;;;;;43.78;17.30;;;;;;;-0.63;68.02;99564.78;10337350;28;20076;-65
2022/12/15 15:46:48;;;;;;;42.25;16.38;;;;;;;-0.83;68.42;99599.81;10340088;28;20101;-67
2022/12/15 15:51:49;;;;;;;46.60;17.35;;;;;;;-0.89;68.40;99595.03;10337674;28;20050;-67
2022/12/15 15:56:50;;;;;;;47.00;16.80;;;;;;;-0.87;68.21;99578.13;10338465;28;20132;-67
2022/12/15 16:01:54;;;;;;;41.13;16.70;;;;;;;-0.94;68.37;99576.09;10328460;28;20049;-65
2022/12/15 16:06:56;;;;;;;41.53;16.40;;;;;;;-1.00;68.04;99582.69;10346991;28;20046;-68
2022/12/15 16:11:58;;;;;;;45.85;16.48;;;;;;;-1.01;68.33;99581.00;10326382;28;20080;-68
2022/12/15 16:16:59;;;;;;;41.50;16.55;;;;;;;-1.14;68.20;99570.59;10333382;28;20747;-67
2022/12/15 16:22:01;;;;;;;36.67;15.98;;;;;;;-1.20;67.99;99573.72;10340342;28;20136;-66
2022/12/15 16:27:02;;;;;;;43.78;15.95;;;;;;;-1.31;68.23;99585.09;10342884;28;20057;-67
2022/12/15 16:32:05;;;;;;;39.78;16.15;;;;;;;-1.37;68.35;99561.84;10344804;28;21519;-67
2022/12/15 16:37:22;;;;;;;42.10;15.07;;;;;;;-1.44;68.27;99561.50;10337026;28;20046;-69
2022/12/15 16:42:24;;;;;;;39.03;16.42;;;;;;;-1.58;68.50;99558.22;10332802;28;20529;-67
2022/12/15 16:47:26;;;;;;;37.10;15.25;;;;;;;-1.75;68.84;99547.19;10342344;28;20070;-68
2022/12/15 16:52:27;;;;;;;43.00;16.30;;;;;;;-1.81;68.72;99548.50;10341903;28;20520;-68
2022/12/15 16:57:28;;;;;;;41.55;14.88;;;;;;;-1.80;68.80;99549.34;10349137;28;20092;-66
2022/12/15 17:02:30;;;;;;;40.38;15.38;;;;;;;-1.85;68.40;99554.97;10350344;28;20181;-66
2022/12/15 17:07:32;;;;;;;39.58;15.80;;;;;;;-1.89;68.43;99552.69;10348784;28;20056;-67
2022/12/15 17:12:33;;;;;;;41.30;17.38;;;;;;;-1.95;68.92;99575.06;10353668;28;20727;-69
2022/12/15 17:17:35;;;;;;;38.80;14.82;;;;;;;-1.98;68.92;99572.63;10342956;28;20058;-66
2022/12/15 17:22:36;;;;;;;34.13;15.30;;;;;;;-2.04;68.46;99573.94;10347793;28;20049;-67
2022/12/15 17:27:38;;;;;;;45.35;17.17;;;;;;;-2.00;68.49;99580.63;10342545;28;20031;-68
2022/12/15 17:32:39;;;;;;;45.55;18.90;;;;;;;-2.01;68.08;99565.81;10334656;28;20061;-66
2022/12/15 17:37:42;;;;;;;44.47;17.67;;;;;;;-2.08;68.46;99574.28;10339725;28;20138;-67
2022/12/15 17:42:45;;;;;;;40.40;15.38;;;;;;;-2.08;68.43;99571.66;10342748;28;20061;-68
2022/12/15 17:47:47;;;;;;;45.60;17.98;;;;;;;-2.14;68.32;99578.22;10346455;28;20034;-67
2022/12/15 17:52:48;;;;;;;42.55;16.67;;;;;;;-2.26;68.44;99573.84;10321863;28;20070;-67
2022/12/15 17:57:53;;;;;;;41.53;16.45;;;;;;;-2.28;68.60;99563.44;10349421;28;20100;-67
2022/12/15 18:02:56;;;;;;;38.08;14.50;;;;;;;-2.36;68.84;99555.28;10348593;28;20125;-67
2022/12/15 18:08:01;;;;;;;32.80;14.38;;;;;;;-2.44;68.84;99555.84;10346384;28;20042;-67
2022/12/15 18:13:13;;;;;;;38.35;13.98;;;;;;;-2.47;68.67;99550.81;10347504;28;20065;-67
2022/12/15 18:18:17;;;;;;;45.50;14.27;;;;;;;-2.46;68.81;99549.00;10338403;28;20081;-67
2022/12/15 18:23:21;;;;;;;38.53;15.00;;;;;;;-2.46;68.71;99549.84;10346903;28;20080;-67
2022/12/15 18:28:27;;;;;;;35.47;14.48;;;;;;;-2.56;68.86;99548.00;10347399;28;20042;-66
2022/12/15 18:33:29;;;;;;;26.87;9.73;;;;;;;-2.56;68.75;99550.66;10351181;28;20880;-68
2022/12/15 18:38:31;;;;;;;32.78;13.45;;;;;;;-2.54;68.60;99548.75;10344178;28;20109;-68
2022/12/15 18:43:33;;;;;;;44.15;16.55;;;;;;;-2.57;68.52;99546.31;10341567;28;20074;-68
2022/12/15 18:48:35;;;;;;;37.63;12.82;;;;;;;-2.65;68.94;99552.97;10346715;28;20097;-68
2022/12/15 18:53:39;;;;;;;38.22;13.70;;;;;;;-2.70;68.42;99549.84;10346286;28;20509;-68
2022/12/15 18:58:41;;;;;;;43.92;17.02;;;;;;;-2.65;68.40;99545.09;10345008;28;20069;-68
2022/12/15 19:03:42;;;;;;;34.08;13.95;;;;;;;-2.70;68.68;99539.34;10345990;28;20061;-67
2022/12/15 19:08:44;;;;;;;33.97;12.48;;;;;;;-2.68;68.11;99544.50;10343164;28;20037;-67
2022/12/15 19:13:45;;;;;;;26.88;11.48;;;;;;;-2.70;68.52;99541.13;10342267;28;20133;-67
2022/12/15 19:24:13;;;;;;;32.45;11.95;;;;;;;-2.87;68.59;99532.66;10340926;28;20042;-67
2022/12/15 19:29:20;;;;;;;33.53;12.50;;;;;;;-2.86;68.35;99529.09;10330437;28;20042;-67
2022/12/15 19:34:22;;;;;;;32.00;11.03;;;;;;;-2.88;68.40;99520.47;10344650;28;20137;-68
2022/12/15 19:39:27;;;;;;;30.13;11.02;;;;;;;-2.87;68.87;99518.69;10323999;28;20337;-67
2022/12/15 19:44:29;;;;;;;27.85;10.57;;;;;;;-2.89;68.70;99518.78;10344878;28;20104;-68
2022/12/15 19:49:31;;;;;;;29.80;10.95;;;;;;;-2.87;68.75;99522.13;10335775;28;20046;-69
2022/12/15 19:54:32;;;;;;;28.25;10.23;;;;;;;-2.90;68.68;99519.75;10342224;28;20069;-68
2022/12/15 19:59:33;;;;;;;28.10;10.65;;;;;;;-2.84;69.29;99513.22;10347158;28;20126;-68
2022/12/15 20:04:35;;;;;;;33.65;13.00;;;;;;;-2.77;68.75;99505.69;10340307;28;20133;-68
2022/12/15 20:09:36;;;;;;;26.00;10.05;;;;;;;-2.71;68.46;99495.56;10341469;28;20412;-68
2022/12/15 20:14:38;;;;;;;30.27;10.77;;;;;;;-2.68;68.83;99481.38;10338950;28;20784;-67
2022/12/15 20:19:40;;;;;;;26.98;10.25;;;;;;;-2.57;69.34;99470.03;10341609;28;20058;-69
2022/12/15 20:24:43;;;;;;;37.38;12.63;;;;;;;-2.45;69.13;99458.59;10340002;28;20066;-68
2022/12/15 20:29:44;;;;;;;22.80;9.38;;;;;;;-2.33;68.69;99446.28;10337730;28;20125;-68
2022/12/15 20:34:46;;;;;;;23.73;8.85;;;;;;;-2.29;68.95;99451.22;10345853;28;20124;-68
2022/12/15 20:39:48;;;;;;;22.20;8.90;;;;;;;-2.22;68.76;99438.44;10347977;28;20119;-69
2022/12/15 20:44:57;;;;;;;18.55;8.98;;;;;;;-2.16;68.47;99448.50;10347606;28;20050;-69
2022/12/15 20:49:58;;;;;;;23.13;8.40;;;;;;;-2.15;68.45;99446.69;10334640;28;21690;-68
2022/12/15 20:55:01;;;;;;;21.58;10.55;;;;;;;-2.11;68.38;99453.41;10349243;28;20037;-68
2022/12/15 21:00:04;;;;;;;18.92;8.07;;;;;;;-2.12;68.08;99472.78;10329332;28;20034;-69
2022/12/15 21:05:06;;;;;;;17.58;7.93;;;;;;;-2.09;68.30;99464.69;10344309;28;20145;-67
2022/12/15 21:10:11;;;;;;;18.58;8.75;;;;;;;-2.11;68.13;99471.81;10343259;28;20567;-71
2022/12/15 21:15:21;;;;;;;21.75;8.23;;;;;;;-2.06;67.76;99469.69;10343610;28;20132;-70
2022/12/15 21:20:22;;;;;;;19.48;8.45;;;;;;;-2.05;67.77;99471.38;10347583;28;20501;-68
2022/12/15 21:25:25;;;;;;;23.63;9.13;;;;;;;-2.05;67.67;99468.75;10346582;28;20693;-68
2022/12/15 21:30:27;;;;;;;22.00;8.25;;;;;;;-2.03;68.05;99467.66;10344497;28;20049;-68
2022/12/15 21:35:28;;;;;;;17.48;7.28;;;;;;;-2.02;67.75;99471.13;10347388;28;20112;-67
2022/12/15 21:40:32;;;;;;;16.33;7.57;;;;;;;-2.01;67.72;99478.91;10343162;28;20038;-69
2022/12/15 21:45:33;;;;;;;17.60;7.95;;;;;;;-1.96;67.59;99483.81;10348225;28;20441;-69
2022/12/15 21:50:37;;;;;;;21.05;8.20;;;;;;;-1.91;67.60;99484.31;10344099;28;20514;-67
2022/12/15 21:55:39;;;;;;;19.50;7.25;;;;;;;-1.89;67.62;99487.69;10340945;28;20121;-68
2022/12/15 22:00:41;;;;;;;18.67;8.23;;;;;;;-1.83;67.61;99494.28;10340089;28;20104;-67
2022/12/15 22:05:46;;;;;;;21.10;7.38;;;;;;;-1.74;67.12;99493.53;10343251;28;20050;-67
2022/12/15 22:10:50;;;;;;;18.92;7.72;;;;;;;-1.68;67.22;99485.19;10348986;28;20140;-68
2022/12/15 22:15:52;;;;;;;15.88;6.50;;;;;;;-1.60;66.97;99500.38;10339553;28;20041;-68
2022/12/15 22:20:55;;;;;;;19.67;7.53;;;;;;;-1.56;67.02;99495.72;10350971;28;20132;-69
2022/12/15 22:25:56;;;;;;;20.52;7.20;;;;;;;-1.62;67.36;99500.50;10357633;28;20066;-69
2022/12/15 22:31:01;;;;;;;12.75;5.65;;;;;;;-1.58;67.00;99505.53;10347492;28;20100;-69
2022/12/15 22:36:03;;;;;;;16.38;6.50;;;;;;;-1.52;67.19;99500.63;10345504;28;20065;-69
2022/12/15 22:41:05;;;;;;;17.13;8.00;;;;;;;-1.45;66.88;99512.34;10344628;28;20077;-69
2022/12/15 22:46:11;;;;;;;20.65;8.15;;;;;;;-1.45;66.90;99504.44;10339929;28;20516;-71
2022/12/15 22:51:15;;;;;;;17.25;6.65;;;;;;;-1.47;66.57;99506.38;10347032;28;20046;-69
2022/12/15 22:56:38;;;;;;;16.65;7.35;;;;;;;-1.52;66.21;99505.03;10342748;28;20146;-69
2022/12/15 23:01:39;;;;;;;14.10;6.38;;;;;;;-1.60;66.47;99500.38;10341596;28;20073;-69
2022/12/15 23:06:41;;;;;;;14.13;5.15;;;;;;;-1.63;66.84;99500.63;10294736;28;20050;-70
2022/12/15 23:11:42;;;;;;;11.93;5.18;;;;;;;-1.67;67.08;99493.91;10343030;28;20041;-71
2022/12/15 23:16:45;;;;;;;12.77;5.13;;;;;;;-1.70;66.87;99499.41;10346921;28;21395;-69
2022/12/15 23:21:46;;;;;;;15.35;6.03;;;;;;;-1.68;67.21;99489.59;10338995;28;20054;-69
2022/12/15 23:26:48;;;;;;;17.13;5.38;;;;;;;-1.71;67.37;99498.59;10346478;28;20464;-67
2022/12/15 23:31:49;;;;;;;14.10;6.00;;;;;;;-1.66;67.16;99504.34;10341982;28;20105;-67
2022/12/15 23:36:50;;;;;;;14.85;5.80;;;;;;;-1.65;66.97;99495.47;10340912;28;20050;-69
2022/12/15 23:41:52;;;;;;;15.15;5.18;;;;;;;-1.70;66.90;99499.41;10340645;28;20137;-67
2022/12/15 23:46:56;;;;;;;13.82;5.05;;;;;;;-1.73;67.10;99502.31;10339929;28;20049;-69
2022/12/15 23:51:57;;;;;;;12.15;4.55;;;;;;;-1.72;67.34;99503.97;10339858;28;20065;-69
2022/12/15 23:56:58;;;;;;;10.52;3.83;;;;;;;-1.71;67.24;99500.38;10342088;28;20128;-68
